createdAt,value
2022-11-04T00:01:08.175Z,55.41
2022-11-04T00:03:10.154Z,55.45
2022-11-04T00:05:11.785Z,55.47
2022-11-04T00:07:31.624Z,55.24
2022-11-04T00:09:33.195Z,55.45
2022-11-04T00:11:53.349Z,55.56
2022-11-04T00:13:55.171Z,55.73
2022-11-04T00:16:19.929Z,55.51
2022-11-04T00:18:21.519Z,55.60
2022-11-04T00:20:41.428Z,55.37
2022-11-04T00:23:01.666Z,55.36
2022-11-04T00:25:21.920Z,55.66
2022-11-04T00:27:42.186Z,55.45
2022-11-04T00:29:44.251Z,55.57
2022-11-04T00:32:04.432Z,55.57
2022-11-04T00:34:05.882Z,55.48
2022-11-04T00:36:07.645Z,55.65
2022-11-04T00:38:09.626Z,55.48
2022-11-04T00:40:16.373Z,55.68
2022-11-04T00:42:18.017Z,55.71
2022-11-04T00:44:19.414Z,55.66
2022-11-04T00:46:21.937Z,55.44
2022-11-04T00:48:23.592Z,55.61
2022-11-04T00:50:25.049Z,55.86
2022-11-04T00:52:26.532Z,55.82
2022-11-04T00:54:28.104Z,55.68
2022-11-04T00:56:29.538Z,55.74
2022-11-04T00:58:31.130Z,56.07
2022-11-04T01:00:32.695Z,55.82
2022-11-04T01:02:34.339Z,55.86
2022-11-04T01:04:36.355Z,55.81
2022-11-04T01:06:37.785Z,56.03
2022-11-04T01:08:40.256Z,56.21
2022-11-04T01:10:44.539Z,56.05
2022-11-04T01:12:46.028Z,56.02
2022-11-04T01:14:49.815Z,55.97
2022-11-04T01:16:51.376Z,56.38
2022-11-04T01:18:53.409Z,56.14
2022-11-04T01:20:55.277Z,56.65
2022-11-04T01:22:56.882Z,56.18
2022-11-04T01:24:58.491Z,56.31
2022-11-04T01:27:00.032Z,56.16
2022-11-04T01:29:01.533Z,56.31
2022-11-04T01:31:10.967Z,56.60
2022-11-04T01:33:12.631Z,56.26
2022-11-04T01:35:14.200Z,56.30
2022-11-04T01:37:15.677Z,56.19
2022-11-04T01:39:17.136Z,56.18
2022-11-04T01:41:30.874Z,56.38
2022-11-04T01:43:57.780Z,56.54
2022-11-04T01:46:01.361Z,56.39
2022-11-04T01:48:13.020Z,56.55
2022-11-04T01:50:22.974Z,56.26
2022-11-04T01:52:33.942Z,56.58
2022-11-04T01:54:37.261Z,56.52
2022-11-04T01:56:41.513Z,56.46
2022-11-04T01:58:53.356Z,56.65
2022-11-04T02:00:54.958Z,56.36
2022-11-04T02:03:04.032Z,56.69
2022-11-04T02:05:06.085Z,56.58
2022-11-04T02:07:10.105Z,56.46
2022-11-04T02:09:12.052Z,56.59
2022-11-04T02:11:33.684Z,56.55
2022-11-04T02:13:36.698Z,56.48
2022-11-04T02:15:47.276Z,56.48
2022-11-04T02:18:03.665Z,56.72
2022-11-04T02:20:11.127Z,56.81
2022-11-04T02:22:30.919Z,56.39
2022-11-04T02:24:57.710Z,57.03
2022-11-04T02:27:36.705Z,56.63
2022-11-04T02:29:43.941Z,56.93
2022-11-04T02:31:48.257Z,56.64
2022-11-04T02:33:56.765Z,56.50
2022-11-04T02:36:09.485Z,56.78
2022-11-04T02:38:20.468Z,56.91
2022-11-04T02:40:39.352Z,56.49
2022-11-04T02:43:01.171Z,56.69
2022-11-04T02:45:29.781Z,56.54
2022-11-04T02:47:33.088Z,56.44
2022-11-04T02:49:43.704Z,56.68
2022-11-04T02:51:52.209Z,56.50
2022-11-04T02:54:20.855Z,56.45
2022-11-04T02:56:24.343Z,56.53
2022-11-04T02:58:32.177Z,56.74
2022-11-04T03:00:34.558Z,56.66
2022-11-04T03:03:01.674Z,56.61
2022-11-04T03:05:05.929Z,56.77
2022-11-04T03:09:21.285Z,56.68
2022-11-04T03:11:25.751Z,56.52
2022-11-04T03:13:38.906Z,56.56
2022-11-04T03:15:46.489Z,56.53
2022-11-04T03:17:59.825Z,56.56
2022-11-04T03:20:06.073Z,56.48
2022-11-04T03:22:15.227Z,56.76
2022-11-04T03:24:16.880Z,56.59
2022-11-04T03:26:23.471Z,56.82
2022-11-04T03:28:58.436Z,56.66
2022-11-04T03:31:03.329Z,56.61
2022-11-04T03:33:04.760Z,56.62
2022-11-04T03:35:07.491Z,56.39
2022-11-04T03:37:09.189Z,56.61
2022-11-04T03:39:10.689Z,56.63
2022-11-04T03:41:26.511Z,56.50
2022-11-04T03:43:29.696Z,56.60
2022-11-04T03:45:31.498Z,56.66
2022-11-04T03:47:33.466Z,56.74
2022-11-04T03:49:35.352Z,56.51
2022-11-04T03:51:36.915Z,56.64
2022-11-04T03:53:38.669Z,56.59
2022-11-04T03:55:54.023Z,56.53
2022-11-04T03:58:03.534Z,56.44
2022-11-04T04:00:18.665Z,56.67
2022-11-04T04:02:33.518Z,56.58
2022-11-04T04:04:38.928Z,56.56
2022-11-04T04:06:43.253Z,56.69
2022-11-04T04:08:53.485Z,56.50
2022-11-04T04:11:06.033Z,56.53
2022-11-04T04:13:23.219Z,56.55
2022-11-04T04:15:31.707Z,56.58
2022-11-04T04:17:48.632Z,56.62
2022-11-04T04:19:57.911Z,56.55
2022-11-04T04:22:06.019Z,56.58
2022-11-04T04:24:29.237Z,56.48
2022-11-04T04:26:52.955Z,56.49
2022-11-04T04:28:56.650Z,56.62
2022-11-04T04:31:00.346Z,56.63
2022-11-04T04:33:18.646Z,56.83
2022-11-04T04:35:42.633Z,56.60
2022-11-04T04:37:45.625Z,56.61
2022-11-04T04:40:10.936Z,56.79
2022-11-04T04:42:31.096Z,56.73
2022-11-04T04:44:52.257Z,56.68
2022-11-04T04:46:55.798Z,56.65
2022-11-04T04:49:07.100Z,56.99
2022-11-04T04:51:09.011Z,56.93
2022-11-04T04:53:11.345Z,56.56
2022-11-04T04:55:14.097Z,56.73
2022-11-04T04:57:15.898Z,56.62
2022-11-04T04:59:17.425Z,56.60
2022-11-04T05:01:19.218Z,56.60
2022-11-04T05:03:20.777Z,56.67
2022-11-04T05:05:22.856Z,56.74
2022-11-04T05:07:24.495Z,56.80
2022-11-04T05:09:25.917Z,56.73
2022-11-04T05:11:27.538Z,56.56
2022-11-04T05:13:31.889Z,56.61
2022-11-04T05:15:34.375Z,56.63
2022-11-04T05:17:35.935Z,56.45
2022-11-04T05:19:37.477Z,56.72
2022-11-04T05:21:39.096Z,56.51
2022-11-04T05:23:40.586Z,56.52
2022-11-04T05:25:42.671Z,56.40
2022-11-04T05:27:44.404Z,56.50
2022-11-04T05:29:45.950Z,56.48
2022-11-04T05:31:47.636Z,56.46
2022-11-04T05:33:49.177Z,56.58
2022-11-04T05:35:50.874Z,56.43
2022-11-04T05:37:52.378Z,56.47
2022-11-04T05:39:53.939Z,56.32
2022-11-04T05:41:55.436Z,56.50
2022-11-04T05:43:59.338Z,56.53
2022-11-04T05:46:01.435Z,56.49
2022-11-04T05:48:04.968Z,56.68
2022-11-04T05:50:07.106Z,56.78
2022-11-04T05:52:08.790Z,56.40
2022-11-04T05:54:10.405Z,56.69
2022-11-04T05:56:12.044Z,56.37
2022-11-04T05:58:13.616Z,56.82
2022-11-04T06:00:16.552Z,56.53
2022-11-04T06:02:18.055Z,56.58
2022-11-04T06:04:19.698Z,56.46
2022-11-04T06:06:22.491Z,56.55
2022-11-04T06:08:23.965Z,56.55
2022-11-04T06:10:25.728Z,56.40
2022-11-04T06:12:27.236Z,56.27
2022-11-04T06:14:28.658Z,56.50
2022-11-04T06:16:30.291Z,56.41
2022-11-04T06:18:31.825Z,56.54
2022-11-04T06:20:33.494Z,56.70
2022-11-04T06:22:34.933Z,56.51
2022-11-04T06:24:36.495Z,56.66
2022-11-04T06:26:39.642Z,56.48
2022-11-04T06:28:41.234Z,56.70
2022-11-04T06:30:42.871Z,56.49
2022-11-04T06:32:44.434Z,56.82
2022-11-04T06:34:46.206Z,56.61
2022-11-04T06:36:49.184Z,56.60
2022-11-04T06:38:50.741Z,56.69
2022-11-04T06:40:52.984Z,56.62
2022-11-04T06:42:54.530Z,56.53
2022-11-04T06:44:56.132Z,56.44
2022-11-04T06:46:57.714Z,56.59
2022-11-04T06:48:59.469Z,56.63
2022-11-04T06:51:01.710Z,56.42
2022-11-04T06:53:03.321Z,56.69
2022-11-04T06:55:05.469Z,56.68
2022-11-04T06:57:08.800Z,56.51
2022-11-04T06:59:16.261Z,56.47
2022-11-04T07:01:22.064Z,56.51
2022-11-04T07:03:24.017Z,56.32
2022-11-04T07:05:25.587Z,56.53
2022-11-04T07:07:29.205Z,56.54
2022-11-04T07:09:30.764Z,56.35
2022-11-04T07:11:33.768Z,56.49
2022-11-04T07:13:35.256Z,56.69
2022-11-04T07:15:39.144Z,56.75
2022-11-04T07:17:40.688Z,56.42
2022-11-04T07:19:42.221Z,56.47
2022-11-04T07:21:43.807Z,56.46
2022-11-04T07:23:45.400Z,56.46
2022-11-04T07:25:47.037Z,56.61
2022-11-04T07:27:48.603Z,56.57
2022-11-04T07:29:50.183Z,56.60
2022-11-04T07:31:51.638Z,56.43
2022-11-04T07:33:53.861Z,56.50
2022-11-04T07:35:57.122Z,56.52
2022-11-04T07:37:59.910Z,56.65
2022-11-04T07:40:01.610Z,56.63
2022-11-04T07:42:03.270Z,56.71
2022-11-04T07:44:05.612Z,56.94
2022-11-04T07:46:12.436Z,56.79
2022-11-04T07:48:13.973Z,56.78
2022-11-04T07:50:15.670Z,56.76
2022-11-04T07:52:17.228Z,56.70
2022-11-04T07:54:18.723Z,56.69
2022-11-04T07:56:20.572Z,56.75
2022-11-04T07:58:22.991Z,56.77
2022-11-04T08:00:24.652Z,56.77
2022-11-04T08:02:31.104Z,56.71
2022-11-04T08:04:35.839Z,56.85
2022-11-04T08:06:37.551Z,56.84
2022-11-04T08:08:39.300Z,56.95
2022-11-04T08:10:40.889Z,56.84
2022-11-04T08:12:42.415Z,56.75
2022-11-04T08:14:43.877Z,56.72
2022-11-04T08:16:45.486Z,56.79
2022-11-04T08:18:48.454Z,56.89
2022-11-04T08:20:51.180Z,56.84
2022-11-04T08:22:52.701Z,56.89
2022-11-04T08:24:54.208Z,56.99
2022-11-04T08:26:55.782Z,56.84
2022-11-04T08:28:57.650Z,57.05
2022-11-04T08:31:07.557Z,56.63
2022-11-04T08:33:09.185Z,56.94
2022-11-04T08:35:11.935Z,56.89
2022-11-04T08:37:15.344Z,56.90
2022-11-04T08:39:16.833Z,56.82
2022-11-04T08:41:22.324Z,57.04
2022-11-04T08:43:24.296Z,56.84
2022-11-04T08:45:29.937Z,56.96
2022-11-04T08:47:34.335Z,56.91
2022-11-04T08:49:39.771Z,56.77
2022-11-04T08:51:45.298Z,56.77
2022-11-04T08:53:46.883Z,56.95
2022-11-04T08:55:49.056Z,56.94
2022-11-04T08:57:51.071Z,56.90
2022-11-04T08:59:52.586Z,56.64
2022-11-04T09:01:54.473Z,56.86
2022-11-04T09:03:56.119Z,57.48
2022-11-04T09:05:57.979Z,56.86
2022-11-04T09:08:01.132Z,57.13
2022-11-04T09:10:03.094Z,56.87
2022-11-04T09:12:04.888Z,56.89
2022-11-04T09:14:07.362Z,56.86
2022-11-04T09:16:11.923Z,56.82
2022-11-04T09:18:13.483Z,56.54
2022-11-04T09:20:15.086Z,56.98
2022-11-04T09:22:17.155Z,56.96
2022-11-04T09:24:18.731Z,56.97
2022-11-04T09:26:22.523Z,56.90
2022-11-04T09:28:25.064Z,57.03
2022-11-04T09:30:26.813Z,56.99
2022-11-04T09:32:28.408Z,56.95
2022-11-04T09:34:30.572Z,57.14
2022-11-04T09:36:32.161Z,56.89
2022-11-04T09:38:33.683Z,57.00
2022-11-04T09:40:37.890Z,56.94
2022-11-04T09:43:13.916Z,57.12
2022-11-04T09:45:23.079Z,57.06
2022-11-04T09:47:26.001Z,57.15
2022-11-04T09:49:32.486Z,57.20
2022-11-04T09:54:00.850Z,56.97
2022-11-04T09:56:30.472Z,57.29
2022-11-04T09:58:37.869Z,57.08
2022-11-04T10:00:41.461Z,57.19
2022-11-04T10:03:04.867Z,56.98
2022-11-04T10:05:24.754Z,57.19
2022-11-04T10:07:41.710Z,57.14
2022-11-04T10:09:48.978Z,57.02
2022-11-04T10:11:58.332Z,57.12
2022-11-04T10:14:37.961Z,57.10
2022-11-04T10:17:13.696Z,57.26
2022-11-04T10:19:40.840Z,57.38
2022-11-04T10:22:23.831Z,57.37
2022-11-04T10:24:41.496Z,57.27
2022-11-04T10:26:54.848Z,57.32
2022-11-04T10:29:09.468Z,57.42
2022-11-04T10:31:16.735Z,57.48
2022-11-04T10:33:35.332Z,57.42
2022-11-04T10:35:42.581Z,57.40
2022-11-04T10:37:46.922Z,57.23
2022-11-04T10:39:48.633Z,57.44
2022-11-04T10:41:50.448Z,57.56
2022-11-04T10:44:08.043Z,57.45
2022-11-04T10:46:26.240Z,57.49
2022-11-04T10:48:37.093Z,57.44
2022-11-04T10:50:54.078Z,57.36
2022-11-04T10:53:11.249Z,57.62
2022-11-04T10:55:28.620Z,57.60
2022-11-04T10:57:30.991Z,57.54
2022-11-04T10:59:50.225Z,57.52
2022-11-04T11:01:54.340Z,57.51
2022-11-04T11:03:58.059Z,57.59
2022-11-04T11:06:16.965Z,57.76
2022-11-04T11:08:34.142Z,57.88
2022-11-04T11:10:36.083Z,57.68
2022-11-04T11:12:51.400Z,57.65
2022-11-04T11:14:53.847Z,57.46
2022-11-04T11:17:17.381Z,57.59
2022-11-04T11:19:21.498Z,57.41
2022-11-04T11:21:26.164Z,57.36
2022-11-04T11:23:47.364Z,57.66
2022-11-04T11:25:52.371Z,57.27
2022-11-04T11:27:55.416Z,57.13
2022-11-04T11:29:57.203Z,57.18
2022-11-04T11:32:00.918Z,57.21
2022-11-04T11:34:07.162Z,57.13
2022-11-04T11:36:26.411Z,57.03
2022-11-04T11:38:33.707Z,56.94
2022-11-04T11:40:51.974Z,56.87
2022-11-04T11:43:00.879Z,56.93
2022-11-04T11:45:10.412Z,56.83
2022-11-04T11:47:38.232Z,56.51
2022-11-04T11:49:39.997Z,56.62
2022-11-04T11:51:43.011Z,56.59
2022-11-04T11:54:12.586Z,56.62
2022-11-04T11:56:26.039Z,56.53
2022-11-04T12:01:30.423Z,56.28
2022-11-04T12:09:42.009Z,56.22
2022-11-04T12:11:58.358Z,56.19
2022-11-04T12:14:13.750Z,56.06
2022-11-04T12:16:33.960Z,56.03
2022-11-04T12:18:50.131Z,56.00
2022-11-04T12:21:22.016Z,56.11
2022-11-04T12:23:39.498Z,56.05
2022-11-04T12:25:46.711Z,56.00
2022-11-04T12:28:06.729Z,55.88
2022-11-04T12:30:13.214Z,55.89
2022-11-04T12:32:29.836Z,55.88
2022-11-04T12:34:52.902Z,55.71
2022-11-04T12:37:04.248Z,55.68
2022-11-04T12:39:15.062Z,55.52
2022-11-04T12:41:58.905Z,55.53
2022-11-04T12:44:13.297Z,55.26
2022-11-04T12:46:24.023Z,55.42
2022-11-04T12:48:57.780Z,55.10
2022-11-04T12:51:22.318Z,55.15
2022-11-04T12:53:37.457Z,55.09
2022-11-04T12:56:09.273Z,54.92
2022-11-04T12:58:28.461Z,55.10
2022-11-04T13:00:32.517Z,55.13
2022-11-04T13:02:40.391Z,54.97
2022-11-04T13:04:54.318Z,54.95
2022-11-04T13:07:01.625Z,54.98
2022-11-04T13:09:15.223Z,54.88
2022-11-04T13:11:25.841Z,54.92
2022-11-04T13:13:34.303Z,54.52
2022-11-04T13:15:44.553Z,54.75
2022-11-04T13:17:50.038Z,54.84
2022-11-04T13:20:00.696Z,54.65
2022-11-04T13:22:08.590Z,54.74
2022-11-04T13:24:20.477Z,54.62
2022-11-04T13:26:22.132Z,54.72
2022-11-04T13:28:24.163Z,54.81
2022-11-04T13:30:45.901Z,54.52
2022-11-04T13:32:55.860Z,54.66
2022-11-04T13:35:09.245Z,54.69
2022-11-04T13:37:22.877Z,54.48
2022-11-04T13:39:29.269Z,54.62
2022-11-04T13:41:39.998Z,54.47
2022-11-04T13:43:49.552Z,54.51
2022-11-04T13:45:53.625Z,54.64
2022-11-04T13:47:58.042Z,54.60
2022-11-04T13:49:59.888Z,54.62
2022-11-04T13:52:08.770Z,54.55
2022-11-04T13:54:31.777Z,54.65
2022-11-04T13:56:37.406Z,54.78
2022-11-04T13:58:43.068Z,54.57
2022-11-04T14:01:10.072Z,54.61
2022-11-04T14:03:26.701Z,54.64
2022-11-04T14:05:28.342Z,54.53
2022-11-04T14:08:01.072Z,54.49
2022-11-04T14:10:03.642Z,54.60
2022-11-04T14:12:11.366Z,54.39
2022-11-04T14:14:19.415Z,54.45
2022-11-04T14:16:23.580Z,54.34
2022-11-04T14:18:34.415Z,54.24
2022-11-04T14:20:37.079Z,54.24
2022-11-04T14:22:44.483Z,54.27
2022-11-04T14:24:54.595Z,54.25
2022-11-04T14:26:56.333Z,54.32
2022-11-04T14:29:06.244Z,53.76
2022-11-04T14:31:16.964Z,54.18
2022-11-04T14:33:23.916Z,53.94
2022-11-04T14:35:26.450Z,54.20
2022-11-04T14:37:33.352Z,53.99
2022-11-04T14:39:40.597Z,54.06
2022-11-04T14:41:48.608Z,53.98
2022-11-04T14:43:52.313Z,54.03
2022-11-04T14:45:55.409Z,53.97
2022-11-04T14:48:15.639Z,53.80
2022-11-04T14:50:21.806Z,54.17
2022-11-04T14:52:32.557Z,54.06
2022-11-04T14:54:34.916Z,54.32
2022-11-04T14:56:36.613Z,53.99
2022-11-04T14:58:38.158Z,54.13
2022-11-04T15:00:53.293Z,53.98
2022-11-04T15:03:04.023Z,54.19
2022-11-04T15:05:05.797Z,54.17
2022-11-04T15:07:23.798Z,53.94
2022-11-04T15:09:35.087Z,54.14
2022-11-04T15:12:03.198Z,54.09
2022-11-04T15:14:14.398Z,54.21
2022-11-04T15:16:18.707Z,54.19
2022-11-04T15:18:28.235Z,54.06
2022-11-04T15:20:31.740Z,54.21
2022-11-04T15:22:33.385Z,54.39
2022-11-04T15:24:35.798Z,54.11
2022-11-04T15:26:37.550Z,54.17
2022-11-04T15:28:47.190Z,54.09
2022-11-04T15:31:05.425Z,54.09
2022-11-04T15:33:17.189Z,53.92
2022-11-04T15:35:19.187Z,54.09
2022-11-04T15:37:24.077Z,54.06
2022-11-04T15:39:40.082Z,54.12
2022-11-04T15:42:02.340Z,53.92
2022-11-04T15:44:04.287Z,53.73
2022-11-04T15:46:06.024Z,53.98
2022-11-04T15:48:31.710Z,53.99
2022-11-04T15:50:33.382Z,53.81
2022-11-04T15:52:35.237Z,53.66
2022-11-04T15:54:40.162Z,53.78
2022-11-04T15:56:50.837Z,53.61
2022-11-04T15:58:54.544Z,53.87
2022-11-04T16:00:56.640Z,53.75
2022-11-04T16:03:00.950Z,53.76
2022-11-04T16:05:21.150Z,53.71
2022-11-04T16:07:24.284Z,53.81
2022-11-04T16:09:28.392Z,53.76
2022-11-04T16:11:30.110Z,53.71
2022-11-04T16:13:32.202Z,53.83
2022-11-04T16:15:35.610Z,53.79
2022-11-04T16:17:44.823Z,53.83
2022-11-04T16:19:49.572Z,53.83
2022-11-04T16:22:04.338Z,53.89
2022-11-04T16:24:23.573Z,53.75
2022-11-04T16:26:28.397Z,53.69
2022-11-04T16:28:34.883Z,54.00
2022-11-04T16:30:36.482Z,53.92
2022-11-04T16:32:43.728Z,53.86
2022-11-04T16:34:46.925Z,53.94
2022-11-04T16:36:48.428Z,54.03
2022-11-04T16:38:57.017Z,53.98
2022-11-04T16:40:58.778Z,53.95
2022-11-04T16:43:00.283Z,53.97
2022-11-04T16:45:04.249Z,54.02
2022-11-04T16:47:06.252Z,54.07
2022-11-04T16:49:09.536Z,54.18
2022-11-04T16:51:19.380Z,54.24
2022-11-04T16:53:20.897Z,54.29
2022-11-04T16:55:24.000Z,54.24
2022-11-04T16:57:25.698Z,54.10
2022-11-04T16:59:27.292Z,54.21
2022-11-04T17:01:28.870Z,54.28
2022-11-04T17:03:30.785Z,54.42
2022-11-04T17:05:32.338Z,54.46
2022-11-04T17:07:52.455Z,54.38
2022-11-04T17:09:56.055Z,54.36
2022-11-04T17:11:57.567Z,54.49
2022-11-04T17:13:59.215Z,54.43
2022-11-04T17:16:00.736Z,54.55
2022-11-04T17:18:02.232Z,54.63
2022-11-04T17:20:05.005Z,54.65
2022-11-04T17:22:08.154Z,54.54
2022-11-04T17:24:11.654Z,54.56
2022-11-04T17:26:13.505Z,54.71
2022-11-04T17:28:15.092Z,54.61
2022-11-04T17:30:18.026Z,54.62
2022-11-04T17:32:20.029Z,54.78
2022-11-04T17:34:25.741Z,54.57
2022-11-04T17:36:27.686Z,54.71
2022-11-04T17:38:29.204Z,54.94
2022-11-04T17:40:30.836Z,54.68
2022-11-04T17:42:51.425Z,54.68
2022-11-04T17:44:53.000Z,54.82
2022-11-04T17:46:54.587Z,54.98
2022-11-04T17:48:56.346Z,54.97
2022-11-04T17:50:57.933Z,54.84
2022-11-04T17:52:59.579Z,54.93
2022-11-04T17:55:01.266Z,54.94
2022-11-04T17:57:03.576Z,54.83
2022-11-04T17:59:05.384Z,55.09
2022-11-04T18:01:08.251Z,55.14
2022-11-04T18:03:12.204Z,55.16
2022-11-04T18:05:14.220Z,54.90
2022-11-04T18:07:15.784Z,55.03
2022-11-04T18:09:18.460Z,55.06
2022-11-04T18:11:40.000Z,55.29
2022-11-04T18:13:41.488Z,55.09
2022-11-04T18:15:44.151Z,55.39
2022-11-04T18:17:46.172Z,55.19
2022-11-04T18:19:47.806Z,55.18
2022-11-04T18:21:51.271Z,55.14
2022-11-04T18:23:55.138Z,55.21
2022-11-04T18:25:56.992Z,55.26
2022-11-04T18:27:58.572Z,55.26
2022-11-04T18:30:00.183Z,55.39
2022-11-04T18:32:01.809Z,55.28
2022-11-04T18:34:09.325Z,55.30
2022-11-04T18:36:10.971Z,55.25
2022-11-04T18:38:12.403Z,55.30
2022-11-04T18:40:13.965Z,55.42
2022-11-04T18:42:15.600Z,55.39
2022-11-04T18:44:22.128Z,55.34
2022-11-04T18:46:23.735Z,55.30
2022-11-04T18:48:25.357Z,55.48
2022-11-04T18:50:26.990Z,55.44
2022-11-04T18:52:28.529Z,55.43
2022-11-04T18:54:30.333Z,55.85
2022-11-04T18:56:32.491Z,55.54
2022-11-04T18:58:36.010Z,55.69
2022-11-04T19:00:40.030Z,55.81
2022-11-04T19:02:41.664Z,55.55
2022-11-04T19:04:43.173Z,55.21
2022-11-04T19:06:45.075Z,55.34
2022-11-04T19:08:47.531Z,55.41
2022-11-04T19:11:00.525Z,55.53
2022-11-04T19:13:18.054Z,55.56
2022-11-04T19:15:19.665Z,55.55
2022-11-04T19:17:21.569Z,55.45
2022-11-04T19:19:22.969Z,55.51
2022-11-04T19:21:25.099Z,55.71
2022-11-04T19:23:26.637Z,55.75
2022-11-04T19:25:28.888Z,55.73
2022-11-04T19:27:30.843Z,55.95
2022-11-04T19:29:32.924Z,55.69
2022-11-04T19:31:34.809Z,55.93
2022-11-04T19:33:36.679Z,55.78
2022-11-04T19:35:38.311Z,55.87
2022-11-04T19:37:39.888Z,55.69
2022-11-04T19:39:41.456Z,55.74
2022-11-04T19:42:02.462Z,55.83
2022-11-04T19:44:07.348Z,55.82
2022-11-04T19:46:09.031Z,55.67
2022-11-04T19:48:13.732Z,55.81
2022-11-04T19:50:15.503Z,55.88
2022-11-04T19:52:17.201Z,55.83
2022-11-04T19:54:19.115Z,55.81
2022-11-04T19:56:22.397Z,56.05
2022-11-04T19:58:24.024Z,56.16
2022-11-04T20:00:25.928Z,56.25
2022-11-04T20:02:27.571Z,56.20
2022-11-04T20:04:29.139Z,56.07
2022-11-04T20:06:32.301Z,56.34
2022-11-04T20:08:36.136Z,56.09
2022-11-04T20:10:43.245Z,56.21
2022-11-04T20:13:03.492Z,56.35
2022-11-04T20:15:05.703Z,56.50
2022-11-04T20:17:07.379Z,56.43
2022-11-04T20:19:09.434Z,56.37
2022-11-04T20:21:11.429Z,56.37
2022-11-04T20:23:13.003Z,56.41
2022-11-04T20:25:14.610Z,56.38
2022-11-04T20:27:16.557Z,56.44
2022-11-04T20:29:18.124Z,56.30
2022-11-04T20:31:23.280Z,56.49
2022-11-04T20:33:24.707Z,56.65
2022-11-04T20:35:26.384Z,56.51
2022-11-04T20:37:27.988Z,56.55
2022-11-04T20:39:29.541Z,56.40
2022-11-04T20:41:32.242Z,56.58
2022-11-04T20:43:35.904Z,56.48
2022-11-04T20:45:38.929Z,56.47
2022-11-04T20:47:41.285Z,56.38
2022-11-04T20:49:42.846Z,56.48
2022-11-04T20:51:50.151Z,56.36
2022-11-04T20:53:56.731Z,56.19
2022-11-04T20:55:58.342Z,56.25
2022-11-04T20:57:59.779Z,56.51
2022-11-04T21:00:01.387Z,56.87
2022-11-04T21:02:03.125Z,56.80
2022-11-04T21:04:07.323Z,56.70
2022-11-04T21:06:12.234Z,56.58
2022-11-04T21:08:13.797Z,56.58
2022-11-04T21:10:15.541Z,56.49
2022-11-04T21:12:19.073Z,56.54
2022-11-04T21:14:20.698Z,56.67
2022-11-04T21:16:22.267Z,56.75
2022-11-04T21:18:24.370Z,56.57
2022-11-04T21:20:25.893Z,57.03
2022-11-04T21:22:27.418Z,56.44
2022-11-04T21:24:29.008Z,56.49
2022-11-04T21:26:34.035Z,56.59
2022-11-04T21:28:35.728Z,56.67
2022-11-04T21:30:39.010Z,56.63
2022-11-04T21:32:40.542Z,56.57
2022-11-04T21:34:42.030Z,56.38
2022-11-04T21:36:43.663Z,56.57
2022-11-04T21:38:45.284Z,56.69
2022-11-04T21:40:47.115Z,56.72
2022-11-04T21:42:48.597Z,56.49
2022-11-04T21:44:50.136Z,56.64
2022-11-04T21:46:52.515Z,56.48
2022-11-04T21:48:55.203Z,56.44
2022-11-04T21:51:00.947Z,56.54
2022-11-04T21:53:02.400Z,56.50
2022-11-04T21:55:04.374Z,56.65
2022-11-04T21:57:05.975Z,56.52
2022-11-04T21:59:07.541Z,56.56
2022-11-04T22:01:10.842Z,56.71
2022-11-04T22:03:12.745Z,56.57
2022-11-04T22:05:14.559Z,56.96
2022-11-04T22:07:36.087Z,56.92
2022-11-04T22:09:37.606Z,57.02
2022-11-04T22:11:39.850Z,57.03
2022-11-04T22:13:42.053Z,56.90
2022-11-04T22:15:58.751Z,56.96
2022-11-04T22:18:00.266Z,56.86
2022-11-04T22:20:01.876Z,56.79
2022-11-04T22:22:03.433Z,56.83
2022-11-04T22:24:05.156Z,56.71
2022-11-04T22:26:10.034Z,56.91
2022-11-04T22:28:11.611Z,56.89
2022-11-04T22:30:13.471Z,56.70
2022-11-04T22:32:15.047Z,56.83
2022-11-04T22:34:16.629Z,56.93
2022-11-04T22:36:18.603Z,56.72
2022-11-04T22:38:20.207Z,56.51
2022-11-04T22:40:21.605Z,56.81
2022-11-04T22:42:23.305Z,56.76
2022-11-04T22:44:24.964Z,56.73
2022-11-04T22:46:31.846Z,56.76
2022-11-04T22:48:34.476Z,56.71
2022-11-04T22:50:36.001Z,56.73
2022-11-04T22:52:37.506Z,56.65
2022-11-04T22:54:39.023Z,56.71
2022-11-04T22:56:40.675Z,56.70
2022-11-04T22:58:42.262Z,56.73
2022-11-04T23:00:44.200Z,56.53
2022-11-04T23:02:45.906Z,56.54
2022-11-04T23:04:47.415Z,56.74
2022-11-04T23:06:48.972Z,56.53
2022-11-04T23:08:59.534Z,56.70
2022-11-04T23:11:32.474Z,56.79
2022-11-04T23:13:52.696Z,56.68
2022-11-04T23:16:12.886Z,56.80
2022-11-04T23:18:33.033Z,56.81
2022-11-04T23:20:34.577Z,56.78
2022-11-04T23:22:56.445Z,56.81
2022-11-04T23:25:07.044Z,56.77
2022-11-04T23:27:08.794Z,56.81
2022-11-04T23:29:28.733Z,56.81
2022-11-04T23:31:30.273Z,56.78
2022-11-04T23:33:50.232Z,56.85
2022-11-04T23:36:10.634Z,56.88
2022-11-04T23:38:12.706Z,56.79
2022-11-04T23:40:14.559Z,56.79
2022-11-04T23:42:21.203Z,56.80
2022-11-04T23:44:41.259Z,56.84
2022-11-04T23:47:01.587Z,56.96
2022-11-04T23:49:21.735Z,56.85
2022-11-04T23:51:41.849Z,57.00
2022-11-04T23:54:02.158Z,57.11
2022-11-04T23:56:23.145Z,57.11
2022-11-04T23:58:43.297Z,57.19
